Cuddapah, Cuddapah Airport (VOCP)

NameCuddapah Airport
CityCuddapah
CountryIndia
ICAOVOCP
IATACDP
Altitude131 m
CoordinatesGoogle Map
Live Air TrafficLiveATC.net
METARVOCP 201200Z 03002KT 6000 FEW020 31/24 Q1005
2019-09-20 12:00:00 Wind: North-Northeast (30°) 1.03 m/s - Visibility: 6000 m - Temperature: 31 °C - Dew point: 24 °C - Humidity: 66.3% - Pressure: 1005 hPa

Sorry, no flights used the airport in this database.